createdAt,value
2017-11-25T00:00:08.565Z,977.39
2017-11-25T00:01:08.561Z,977.33
2017-11-25T00:02:08.564Z,977.32
2017-11-25T00:03:08.554Z,977.33
2017-11-25T00:04:08.551Z,977.30
2017-11-25T00:05:08.557Z,977.31
2017-11-25T00:06:08.549Z,977.27
2017-11-25T00:07:08.550Z,977.29
2017-11-25T00:08:08.546Z,977.26
2017-11-25T00:09:08.542Z,977.24
2017-11-25T00:10:08.541Z,977.22
2017-11-25T00:11:08.537Z,977.19
2017-11-25T00:12:08.536Z,977.18
2017-11-25T00:13:08.533Z,977.14
2017-11-25T00:14:08.531Z,977.16
2017-11-25T00:15:08.529Z,977.15
2017-11-25T00:16:08.527Z,977.14
2017-11-25T00:17:08.525Z,977.13
2017-11-25T00:18:08.525Z,977.14
2017-11-25T00:19:08.518Z,977.10
2017-11-25T00:20:08.520Z,977.09
2017-11-25T00:21:08.518Z,977.05
2017-11-25T00:22:08.514Z,977.05
2017-11-25T00:23:08.511Z,977.02
2017-11-25T00:24:08.506Z,977.00
2017-11-25T00:25:08.510Z,977.03
2017-11-25T00:26:08.504Z,977.01
2017-11-25T00:27:08.503Z,977.00
2017-11-25T00:28:08.505Z,976.95
2017-11-25T00:29:08.498Z,976.93
2017-11-25T00:30:08.496Z,976.92
2017-11-25T00:31:08.495Z,976.88
2017-11-25T00:32:08.490Z,976.84
2017-11-25T00:33:08.493Z,976.86
2017-11-25T00:34:08.490Z,976.86
2017-11-25T00:35:08.492Z,976.87
2017-11-25T00:36:08.479Z,976.91
2017-11-25T00:37:08.479Z,976.91
2017-11-25T00:38:08.481Z,976.94
2017-11-25T00:39:08.476Z,976.93
2017-11-25T00:40:08.548Z,976.94
2017-11-25T00:41:08.472Z,976.93
2017-11-25T00:42:08.464Z,976.92
2017-11-25T00:43:08.467Z,976.96
2017-11-25T00:44:08.467Z,976.92
2017-11-25T00:45:08.464Z,976.95
2017-11-25T00:46:08.457Z,976.89
2017-11-25T00:47:08.454Z,976.95
2017-11-25T00:48:08.454Z,976.96
2017-11-25T00:49:08.448Z,976.91
2017-11-25T00:50:08.451Z,976.88
2017-11-25T00:51:08.447Z,976.88
2017-11-25T00:52:08.449Z,976.85
2017-11-25T00:53:08.441Z,976.80
2017-11-25T00:54:08.442Z,976.79
2017-11-25T00:55:08.440Z,976.80
2017-11-25T00:56:08.435Z,976.74
2017-11-25T00:57:08.434Z,976.71
2017-11-25T00:58:08.431Z,976.70
2017-11-25T00:59:08.427Z,976.68
2017-11-25T01:00:08.425Z,976.67
2017-11-25T01:01:08.425Z,976.68
2017-11-25T01:02:08.423Z,976.63
2017-11-25T01:03:08.418Z,976.65
2017-11-25T01:04:08.423Z,976.63
2017-11-25T01:05:08.414Z,976.65
2017-11-25T01:06:08.411Z,976.59
2017-11-25T01:07:08.420Z,976.65
2017-11-25T01:08:08.410Z,976.61
2017-11-25T01:09:08.405Z,976.63
2017-11-25T01:10:08.407Z,976.62
2017-11-25T01:11:08.402Z,976.62
2017-11-25T01:12:08.400Z,976.55
2017-11-25T01:13:08.406Z,976.56
2017-11-25T01:14:08.397Z,976.51
2017-11-25T01:15:08.392Z,976.52
2017-11-25T01:16:08.386Z,976.54
2017-11-25T01:17:08.385Z,976.51
2017-11-25T01:18:08.397Z,976.47
2017-11-25T01:19:08.385Z,976.43
2017-11-25T01:20:08.383Z,976.44
2017-11-25T01:21:08.380Z,976.44
2017-11-25T01:22:08.376Z,976.41
2017-11-25T01:23:08.375Z,976.41
2017-11-25T01:24:08.378Z,976.38
2017-11-25T01:25:08.366Z,976.40
2017-11-25T01:26:08.364Z,976.34
2017-11-25T01:27:08.363Z,976.35
2017-11-25T01:28:08.360Z,976.33
2017-11-25T01:29:08.361Z,976.32
2017-11-25T01:30:08.360Z,976.35
2017-11-25T01:31:08.363Z,976.33
2017-11-25T01:32:08.409Z,976.33
2017-11-25T01:33:08.358Z,976.30
2017-11-25T01:34:08.381Z,976.22
2017-11-25T01:35:08.347Z,976.25
2017-11-25T01:36:08.351Z,976.17
2017-11-25T01:37:08.342Z,976.13
2017-11-25T01:38:08.347Z,976.14
2017-11-25T01:39:08.338Z,976.09
2017-11-25T01:40:08.338Z,976.06
2017-11-25T01:41:08.341Z,976.07
2017-11-25T01:42:08.333Z,976.05
2017-11-25T01:43:08.329Z,976.03
2017-11-25T01:44:08.329Z,976.01
2017-11-25T01:45:08.320Z,976.05
2017-11-25T01:46:08.334Z,976.04
2017-11-25T01:47:08.322Z,976.02
2017-11-25T01:48:08.317Z,975.99
2017-11-25T01:49:08.312Z,976.01
2017-11-25T01:50:08.311Z,976.02
2017-11-25T01:51:08.314Z,976.02
2017-11-25T01:52:08.313Z,976.01
2017-11-25T01:53:08.306Z,976.01
2017-11-25T01:54:08.304Z,975.97
2017-11-25T01:55:08.303Z,975.92
2017-11-25T01:56:08.299Z,975.91
2017-11-25T01:57:08.301Z,975.90
2017-11-25T01:58:08.295Z,975.90
2017-11-25T01:59:08.293Z,975.90
2017-11-25T02:00:08.290Z,975.93
2017-11-25T02:01:08.288Z,975.94
2017-11-25T02:02:08.286Z,975.89
2017-11-25T02:03:08.286Z,975.89
2017-11-25T02:04:08.284Z,975.91
2017-11-25T02:05:08.282Z,975.90
2017-11-25T02:06:08.280Z,975.86
2017-11-25T02:07:08.287Z,975.85
2017-11-25T02:08:08.291Z,975.90
2017-11-25T02:09:08.273Z,975.88
2017-11-25T02:10:08.271Z,975.90
2017-11-25T02:11:08.267Z,975.87
2017-11-25T02:12:08.298Z,975.78
2017-11-25T02:13:08.266Z,975.85
2017-11-25T02:14:08.261Z,975.78
2017-11-25T02:15:08.257Z,975.76
2017-11-25T02:16:08.264Z,975.75
2017-11-25T02:17:08.258Z,975.72
2017-11-25T02:18:08.248Z,975.72
2017-11-25T02:19:08.258Z,975.67
2017-11-25T02:20:08.255Z,975.64
2017-11-25T02:21:08.253Z,975.63
2017-11-25T02:22:08.245Z,975.60
2017-11-25T02:23:08.248Z,975.57
2017-11-25T02:24:08.242Z,975.58
2017-11-25T02:25:08.240Z,975.53
2017-11-25T02:26:08.240Z,975.54
2017-11-25T02:27:08.241Z,975.51
2017-11-25T02:28:08.233Z,975.52
2017-11-25T02:29:08.232Z,975.52
2017-11-25T02:30:08.227Z,975.50
2017-11-25T02:31:08.232Z,975.51
2017-11-25T02:32:08.228Z,975.46
2017-11-25T02:33:08.224Z,975.51
2017-11-25T02:34:08.221Z,975.43
2017-11-25T02:35:08.220Z,975.41
2017-11-25T02:36:08.223Z,975.39
2017-11-25T02:37:08.215Z,975.37
2017-11-25T02:38:08.221Z,975.31
2017-11-25T02:39:08.212Z,975.28
2017-11-25T02:40:08.211Z,975.27
2017-11-25T02:41:08.212Z,975.22
2017-11-25T02:42:08.207Z,975.21
2017-11-25T02:43:08.203Z,975.16
2017-11-25T02:44:08.201Z,975.15
2017-11-25T02:45:08.198Z,975.09
2017-11-25T02:46:08.214Z,975.03
2017-11-25T02:47:08.194Z,975.02
2017-11-25T02:48:08.191Z,974.97
2017-11-25T02:49:08.188Z,974.97
2017-11-25T02:50:08.187Z,974.95
2017-11-25T02:51:08.186Z,974.94
2017-11-25T02:52:08.183Z,974.94
2017-11-25T02:53:08.184Z,975.01
2017-11-25T02:54:08.182Z,974.98
2017-11-25T02:55:08.180Z,974.96
2017-11-25T02:56:08.176Z,974.99
2017-11-25T02:57:08.175Z,974.96
2017-11-25T02:58:08.171Z,974.95
2017-11-25T02:59:08.164Z,974.93
2017-11-25T03:00:08.169Z,974.96
2017-11-25T03:01:08.163Z,974.95
2017-11-25T03:02:08.163Z,974.87
2017-11-25T03:03:08.165Z,974.88
2017-11-25T03:04:08.157Z,974.84
2017-11-25T03:05:08.159Z,974.73
2017-11-25T03:06:08.155Z,974.66
2017-11-25T03:07:08.154Z,974.65
2017-11-25T03:08:08.152Z,974.61
2017-11-25T03:09:08.155Z,974.57
2017-11-25T03:10:08.148Z,974.58
2017-11-25T03:11:08.150Z,974.58
2017-11-25T03:12:08.144Z,974.63
2017-11-25T03:13:08.142Z,974.64
2017-11-25T03:14:08.143Z,974.69
2017-11-25T03:15:08.137Z,974.73
2017-11-25T03:16:08.140Z,974.77
2017-11-25T03:17:08.133Z,974.73
2017-11-25T03:18:08.130Z,974.72
2017-11-25T03:19:08.131Z,974.72
2017-11-25T03:20:08.127Z,974.65
2017-11-25T03:21:08.133Z,974.60
2017-11-25T03:22:08.126Z,974.56
2017-11-25T03:23:08.125Z,974.53
2017-11-25T03:24:08.121Z,974.60
2017-11-25T03:25:08.125Z,974.61
2017-11-25T03:26:08.117Z,974.63
2017-11-25T03:27:08.116Z,974.64
2017-11-25T03:28:08.116Z,974.59
2017-11-25T03:29:08.108Z,974.61
2017-11-25T03:30:08.113Z,974.59
2017-11-25T03:31:08.108Z,974.64
2017-11-25T03:32:08.107Z,974.59
2017-11-25T03:33:08.104Z,974.49
2017-11-25T03:34:08.121Z,974.34
2017-11-25T03:35:08.126Z,974.35
2017-11-25T03:36:08.099Z,974.26
2017-11-25T03:37:08.098Z,974.28
2017-11-25T03:38:08.096Z,974.24
2017-11-25T03:39:08.098Z,974.22
2017-11-25T03:40:08.089Z,974.21
2017-11-25T03:41:08.098Z,974.18
2017-11-25T03:42:08.090Z,974.16
2017-11-25T03:43:08.091Z,974.16
2017-11-25T03:44:08.086Z,974.12
2017-11-25T03:45:08.081Z,974.08
2017-11-25T03:46:08.080Z,974.02
2017-11-25T03:47:08.080Z,974.04
2017-11-25T03:48:08.084Z,974.03
2017-11-25T03:49:08.074Z,974.03
2017-11-25T03:50:08.073Z,973.91
2017-11-25T03:51:08.069Z,973.82
2017-11-25T03:52:08.074Z,973.82
2017-11-25T03:53:08.083Z,973.78
2017-11-25T03:54:08.060Z,973.75
2017-11-25T03:55:08.064Z,973.79
2017-11-25T03:56:08.071Z,973.82
2017-11-25T03:57:08.061Z,973.81
2017-11-25T03:58:08.060Z,973.74
2017-11-25T03:59:08.054Z,973.71
2017-11-25T04:00:08.069Z,973.66
2017-11-25T04:01:08.052Z,973.63
2017-11-25T04:02:08.054Z,973.57
2017-11-25T04:03:08.053Z,973.55
2017-11-25T04:04:08.046Z,973.56
2017-11-25T04:05:08.046Z,973.59
2017-11-25T04:06:08.043Z,973.65
2017-11-25T04:07:08.053Z,973.68
2017-11-25T04:08:08.049Z,973.71
2017-11-25T04:09:08.042Z,973.71
2017-11-25T04:10:08.039Z,973.71
2017-11-25T04:11:08.038Z,973.75
2017-11-25T04:12:08.045Z,973.74
2017-11-25T04:13:08.032Z,973.75
2017-11-25T04:14:08.033Z,973.72
2017-11-25T04:15:08.033Z,973.66
2017-11-25T04:16:08.026Z,973.65
2017-11-25T04:17:08.039Z,973.61
2017-11-25T04:18:08.024Z,973.54
2017-11-25T04:19:08.019Z,973.50
2017-11-25T04:20:08.025Z,973.49
2017-11-25T04:21:08.028Z,973.48
2017-11-25T04:22:08.018Z,973.48
2017-11-25T04:23:08.009Z,973.44
2017-11-25T04:24:08.014Z,973.42
2017-11-25T04:25:08.003Z,973.33
2017-11-25T04:26:08.011Z,973.24
2017-11-25T04:27:08.010Z,973.23
2017-11-25T04:28:08.006Z,973.21
2017-11-25T04:29:08.001Z,973.14
2017-11-25T04:30:08.008Z,973.10
2017-11-25T04:31:07.998Z,973.06
2017-11-25T04:32:08.006Z,973.07
2017-11-25T04:33:07.995Z,973.10
2017-11-25T04:34:07.995Z,973.15
2017-11-25T04:35:07.995Z,973.10
2017-11-25T04:36:07.989Z,973.08
2017-11-25T04:37:07.985Z,973.04
2017-11-25T04:38:07.986Z,973.05
2017-11-25T04:39:07.987Z,973.07
2017-11-25T04:40:07.988Z,972.95
2017-11-25T04:41:07.981Z,972.98
2017-11-25T04:42:07.985Z,972.95
2017-11-25T04:43:07.978Z,972.86
2017-11-25T04:44:07.983Z,972.82
2017-11-25T04:45:07.980Z,972.80
2017-11-25T04:46:07.974Z,972.74
2017-11-25T04:47:07.970Z,972.75
2017-11-25T04:48:07.969Z,972.73
2017-11-25T04:49:07.980Z,972.66
2017-11-25T04:50:07.975Z,972.62
2017-11-25T04:51:08.021Z,972.65
2017-11-25T04:52:07.966Z,972.62
2017-11-25T04:53:07.967Z,972.60
2017-11-25T04:54:07.959Z,972.61
2017-11-25T04:55:07.961Z,972.60
2017-11-25T04:56:07.958Z,972.53
2017-11-25T04:57:07.963Z,972.53
2017-11-25T04:58:07.964Z,972.57
2017-11-25T04:59:07.951Z,972.60
2017-11-25T05:00:07.955Z,972.64
2017-11-25T05:01:07.945Z,972.64
2017-11-25T05:02:07.943Z,972.64
2017-11-25T05:03:07.944Z,972.64
2017-11-25T05:04:07.943Z,972.63
2017-11-25T05:05:07.941Z,972.66
2017-11-25T05:06:07.951Z,972.68
2017-11-25T05:07:07.941Z,972.68
2017-11-25T05:08:07.942Z,972.72
2017-11-25T05:09:07.934Z,972.71
2017-11-25T05:10:07.934Z,972.69
2017-11-25T05:11:07.928Z,972.64
2017-11-25T05:12:07.931Z,972.62
2017-11-25T05:13:07.933Z,972.56
2017-11-25T05:14:07.926Z,972.54
2017-11-25T05:15:07.926Z,972.41
2017-11-25T05:16:07.925Z,972.40
2017-11-25T05:17:07.924Z,972.42
2017-11-25T05:18:07.920Z,972.44
2017-11-25T05:19:07.926Z,972.43
2017-11-25T05:20:07.952Z,972.42
2017-11-25T05:21:07.916Z,972.44
2017-11-25T05:22:07.923Z,972.43
2017-11-25T05:23:07.912Z,972.38
2017-11-25T05:24:07.907Z,972.36
2017-11-25T05:25:07.907Z,972.32
2017-11-25T05:26:07.904Z,972.25
2017-11-25T05:27:07.906Z,972.14
2017-11-25T05:28:07.902Z,972.09
2017-11-25T05:29:07.900Z,972.06
2017-11-25T05:30:07.896Z,972.03
2017-11-25T05:31:07.897Z,971.96
2017-11-25T05:32:07.898Z,971.94
2017-11-25T05:33:07.894Z,971.96
2017-11-25T05:34:07.894Z,971.92
2017-11-25T05:35:07.887Z,971.93
2017-11-25T05:36:07.891Z,971.91
2017-11-25T05:37:07.890Z,971.94
2017-11-25T05:38:07.892Z,971.91
2017-11-25T05:39:07.892Z,971.96
2017-11-25T05:40:07.889Z,971.95
2017-11-25T05:41:07.881Z,971.93
2017-11-25T05:42:07.879Z,971.87
2017-11-25T05:43:07.879Z,971.82
2017-11-25T05:44:07.887Z,971.73
2017-11-25T05:45:07.872Z,971.71
2017-11-25T05:46:07.895Z,971.70
2017-11-25T05:47:09.410Z,971.65
2017-11-25T05:48:07.869Z,971.64
2017-11-25T05:49:07.868Z,971.65
2017-11-25T05:50:07.862Z,971.66
2017-11-25T05:51:07.875Z,971.67
2017-11-25T05:52:07.861Z,971.63
2017-11-25T05:53:07.878Z,971.66
2017-11-25T05:54:07.861Z,971.63
2017-11-25T05:55:07.856Z,971.64
2017-11-25T05:56:07.854Z,971.63
2017-11-25T05:57:07.853Z,971.58
2017-11-25T05:58:07.849Z,971.57
2017-11-25T05:59:07.847Z,971.58
2017-11-25T06:00:07.853Z,971.53
2017-11-25T06:01:07.853Z,971.51
2017-11-25T06:02:07.848Z,971.50
2017-11-25T06:03:07.845Z,971.45
2017-11-25T06:04:07.838Z,971.42
2017-11-25T06:05:07.840Z,971.45
2017-11-25T06:06:07.836Z,971.45
2017-11-25T06:07:07.837Z,971.50
2017-11-25T06:08:07.834Z,971.55
2017-11-25T06:09:07.831Z,971.54
2017-11-25T06:10:07.830Z,971.56
2017-11-25T06:11:07.831Z,971.59
2017-11-25T06:12:07.831Z,971.59
2017-11-25T06:13:07.824Z,971.58
2017-11-25T06:14:07.827Z,971.56
2017-11-25T06:15:07.823Z,971.54
2017-11-25T06:16:07.817Z,971.54
2017-11-25T06:17:07.818Z,971.52
2017-11-25T06:18:07.815Z,971.47
2017-11-25T06:19:07.816Z,971.46
2017-11-25T06:20:07.818Z,971.42
2017-11-25T06:21:07.815Z,971.36
2017-11-25T06:22:07.822Z,971.34
2017-11-25T06:23:07.811Z,971.28
2017-11-25T06:24:07.805Z,971.31
2017-11-25T06:25:07.819Z,971.33
2017-11-25T06:26:07.802Z,971.40
2017-11-25T06:27:07.802Z,971.33
2017-11-25T06:28:07.799Z,971.37
2017-11-25T06:29:07.802Z,971.33
2017-11-25T06:30:07.796Z,971.34
2017-11-25T06:31:07.792Z,971.34
2017-11-25T06:32:07.796Z,971.38
2017-11-25T06:33:07.790Z,971.36
2017-11-25T06:34:07.795Z,971.40
2017-11-25T06:35:07.786Z,971.41
2017-11-25T06:36:07.782Z,971.48
2017-11-25T06:37:07.781Z,971.47
2017-11-25T06:38:07.781Z,971.49
2017-11-25T06:39:07.792Z,971.49
2017-11-25T06:40:07.774Z,971.48
2017-11-25T06:41:07.812Z,971.45
2017-11-25T06:42:07.773Z,971.41
2017-11-25T06:43:07.783Z,971.44
2017-11-25T06:44:07.771Z,971.49
2017-11-25T06:45:07.770Z,971.45
2017-11-25T06:46:07.768Z,971.47
2017-11-25T06:47:07.771Z,971.45
2017-11-25T06:48:07.762Z,971.48
2017-11-25T06:49:07.765Z,971.39
2017-11-25T06:50:07.767Z,971.39
2017-11-25T06:51:07.764Z,971.36
2017-11-25T06:52:07.764Z,971.32
2017-11-25T06:53:07.764Z,971.33
2017-11-25T06:54:07.754Z,971.31
2017-11-25T06:55:07.751Z,971.35
2017-11-25T06:56:07.750Z,971.34
2017-11-25T06:57:07.752Z,971.42
2017-11-25T06:58:07.747Z,971.45
2017-11-25T06:59:07.751Z,971.47
2017-11-25T07:00:07.745Z,971.52
2017-11-25T07:01:07.744Z,971.51
2017-11-25T07:02:07.741Z,971.51
2017-11-25T07:03:07.739Z,971.51
2017-11-25T07:04:07.740Z,971.48
2017-11-25T07:05:07.732Z,971.44
2017-11-25T07:06:07.731Z,971.45
2017-11-25T07:07:07.729Z,971.48
2017-11-25T07:08:07.726Z,971.43
2017-11-25T07:09:07.729Z,971.45
2017-11-25T07:10:07.725Z,971.45
2017-11-25T07:11:07.725Z,971.41
2017-11-25T07:12:07.723Z,971.43
2017-11-25T07:13:07.719Z,971.39
2017-11-25T07:14:07.721Z,971.39
2017-11-25T07:15:07.715Z,971.39
2017-11-25T07:16:07.715Z,971.39
2017-11-25T07:17:07.709Z,971.39
2017-11-25T07:18:07.712Z,971.37
2017-11-25T07:19:07.709Z,971.36
2017-11-25T07:20:07.708Z,971.32
2017-11-25T07:21:07.703Z,971.24
2017-11-25T07:22:07.706Z,971.17
2017-11-25T07:23:07.698Z,971.15
2017-11-25T07:24:07.697Z,971.15
2017-11-25T07:25:07.702Z,971.11
2017-11-25T07:26:07.693Z,971.19
2017-11-25T07:27:07.690Z,971.24
2017-11-25T07:28:07.687Z,971.26
2017-11-25T07:29:07.686Z,971.28
2017-11-25T07:30:07.704Z,971.29
2017-11-25T07:31:07.688Z,971.29
2017-11-25T07:32:07.681Z,971.22
2017-11-25T07:33:07.688Z,971.15
2017-11-25T07:34:07.670Z,971.19
2017-11-25T07:35:07.676Z,971.15
2017-11-25T07:36:07.680Z,971.18
2017-11-25T07:37:07.674Z,971.17
2017-11-25T07:38:07.670Z,971.17
2017-11-25T07:39:07.670Z,971.17
2017-11-25T07:40:07.665Z,971.17
2017-11-25T07:41:07.659Z,971.19
2017-11-25T07:42:07.659Z,971.17
2017-11-25T07:43:07.682Z,971.17
2017-11-25T07:44:07.660Z,971.14
2017-11-25T07:45:07.655Z,971.14
2017-11-25T07:46:07.649Z,971.13
2017-11-25T07:47:07.656Z,971.13
2017-11-25T07:48:07.645Z,971.11
2017-11-25T07:49:07.649Z,971.13
2017-11-25T07:50:07.641Z,971.05
2017-11-25T07:51:07.648Z,971.07
2017-11-25T07:52:07.639Z,971.00
2017-11-25T07:53:07.643Z,971.03
2017-11-25T07:54:07.634Z,971.00
2017-11-25T07:55:07.633Z,970.98
2017-11-25T07:56:07.630Z,971.02
2017-11-25T07:57:07.630Z,970.99
2017-11-25T07:58:07.627Z,970.98
2017-11-25T07:59:07.628Z,970.92
2017-11-25T08:00:07.621Z,970.95
2017-11-25T08:01:07.613Z,970.92
2017-11-25T08:02:07.620Z,970.92
2017-11-25T08:03:07.722Z,970.96
2017-11-25T08:04:07.642Z,971.00
2017-11-25T08:05:07.611Z,971.03
2017-11-25T08:06:07.625Z,971.06
2017-11-25T08:07:07.614Z,971.09
2017-11-25T08:08:07.617Z,971.10
2017-11-25T08:09:07.628Z,971.13
2017-11-25T08:10:07.604Z,971.13
2017-11-25T08:11:07.598Z,971.11
2017-11-25T08:12:07.598Z,971.17
2017-11-25T08:13:07.595Z,971.16
2017-11-25T08:14:07.596Z,971.11
2017-11-25T08:15:07.592Z,971.10
2017-11-25T08:16:07.591Z,971.06
2017-11-25T08:17:07.591Z,971.07
2017-11-25T08:18:07.588Z,971.05
2017-11-25T08:19:07.585Z,971.08
2017-11-25T08:20:07.585Z,971.03
2017-11-25T08:21:07.605Z,971.07
2017-11-25T08:22:07.580Z,971.08
2017-11-25T08:23:07.577Z,971.08
2017-11-25T08:24:07.576Z,971.06
2017-11-25T08:25:07.572Z,970.99
2017-11-25T08:26:07.570Z,971.04
2017-11-25T08:27:07.582Z,971.00
2017-11-25T08:28:07.566Z,971.04
2017-11-25T08:29:07.564Z,971.04
2017-11-25T08:30:09.454Z,971.07
2017-11-25T08:31:07.562Z,971.03
2017-11-25T08:32:07.558Z,971.03
2017-11-25T08:33:07.562Z,971.01
2017-11-25T08:34:07.556Z,971.01
2017-11-25T08:35:10.786Z,971.03
2017-11-25T08:36:07.571Z,971.04
2017-11-25T08:37:07.550Z,971.00
2017-11-25T08:38:07.544Z,971.03
2017-11-25T08:39:07.547Z,971.00
2017-11-25T08:40:07.547Z,970.94
2017-11-25T08:41:07.541Z,970.90
2017-11-25T08:42:07.537Z,970.91
2017-11-25T08:43:07.544Z,970.92
2017-11-25T08:44:07.542Z,970.93
2017-11-25T08:45:07.535Z,970.93
2017-11-25T08:46:07.533Z,970.94
2017-11-25T08:47:07.535Z,970.96
2017-11-25T08:48:07.531Z,970.93
2017-11-25T08:49:07.540Z,970.95
2017-11-25T08:50:07.527Z,970.93
2017-11-25T08:51:07.524Z,970.89
2017-11-25T08:52:07.533Z,970.86
2017-11-25T08:53:07.519Z,970.89
2017-11-25T08:54:07.517Z,970.90
2017-11-25T08:55:07.523Z,970.91
2017-11-25T08:56:07.517Z,970.90
2017-11-25T08:57:07.514Z,970.97
2017-11-25T08:58:07.512Z,970.98
2017-11-25T08:59:07.513Z,970.98
2017-11-25T09:00:07.522Z,971.05
2017-11-25T09:01:07.507Z,971.08
2017-11-25T09:02:07.507Z,971.09
2017-11-25T09:03:07.506Z,971.14
2017-11-25T09:04:07.495Z,971.16
2017-11-25T09:05:07.504Z,971.17
2017-11-25T09:06:07.496Z,971.13
2017-11-25T09:07:07.497Z,971.08
2017-11-25T09:08:07.495Z,971.10
2017-11-25T09:09:07.486Z,971.05
2017-11-25T09:10:07.491Z,971.03
2017-11-25T09:11:07.486Z,970.95
2017-11-25T09:12:07.486Z,971.00
2017-11-25T09:13:07.485Z,971.02
2017-11-25T09:14:07.481Z,971.03
2017-11-25T09:15:07.481Z,971.03
2017-11-25T09:16:07.478Z,970.99
2017-11-25T09:17:07.471Z,971.02
2017-11-25T09:18:07.474Z,971.02
2017-11-25T09:19:07.472Z,971.03
2017-11-25T09:20:07.472Z,971.07
2017-11-25T09:21:07.469Z,971.09
2017-11-25T09:22:07.465Z,971.10
2017-11-25T09:23:07.464Z,971.07
2017-11-25T09:24:07.465Z,971.04
2017-11-25T09:25:07.460Z,971.02
2017-11-25T09:26:07.454Z,971.03
2017-11-25T09:27:07.456Z,971.04
2017-11-25T09:28:07.455Z,971.06
2017-11-25T09:29:07.451Z,971.09
2017-11-25T09:30:07.467Z,971.05
2017-11-25T09:31:07.447Z,971.07
2017-11-25T09:32:07.446Z,971.09
2017-11-25T09:33:07.445Z,971.09
2017-11-25T09:34:07.446Z,971.17
2017-11-25T09:35:07.450Z,971.13
2017-11-25T09:36:07.439Z,971.15
2017-11-25T09:37:07.438Z,971.10
2017-11-25T09:38:09.967Z,971.13
2017-11-25T09:39:07.437Z,971.16
2017-11-25T09:40:07.428Z,971.10
2017-11-25T09:41:07.433Z,971.11
2017-11-25T09:42:07.424Z,971.10
2017-11-25T09:43:07.423Z,971.14
2017-11-25T09:44:07.419Z,971.13
2017-11-25T09:45:07.424Z,971.11
2017-11-25T09:46:07.414Z,971.09
2017-11-25T09:47:07.422Z,971.12
2017-11-25T09:48:07.425Z,971.11
2017-11-25T09:49:07.408Z,971.08
2017-11-25T09:50:07.506Z,971.05
2017-11-25T09:51:07.409Z,971.14
2017-11-25T09:52:07.463Z,971.09
2017-11-25T09:53:07.411Z,971.08
2017-11-25T09:54:07.396Z,971.05
2017-11-25T09:55:07.397Z,971.05
2017-11-25T09:56:07.393Z,971.03
2017-11-25T09:57:07.398Z,971.09
2017-11-25T09:58:07.387Z,971.08
2017-11-25T09:59:07.385Z,971.08
2017-11-25T10:00:07.385Z,971.04
2017-11-25T10:01:07.382Z,971.04
2017-11-25T10:02:07.377Z,971.03
2017-11-25T10:03:07.382Z,971.08
2017-11-25T10:04:07.372Z,971.10
2017-11-25T10:05:07.370Z,971.07
2017-11-25T10:06:07.370Z,971.07
2017-11-25T10:07:07.368Z,971.07
2017-11-25T10:08:07.373Z,971.06
2017-11-25T10:09:07.375Z,971.06
2017-11-25T10:10:07.357Z,971.09
2017-11-25T10:11:07.358Z,971.10
2017-11-25T10:12:07.360Z,971.11
2017-11-25T10:13:07.352Z,971.10
2017-11-25T10:14:07.352Z,971.12
2017-11-25T10:15:07.350Z,971.17
2017-11-25T10:16:07.349Z,971.21
2017-11-25T10:17:07.348Z,971.19
2017-11-25T10:18:07.343Z,971.20
2017-11-25T10:19:07.338Z,971.18
2017-11-25T10:20:07.342Z,971.19
2017-11-25T10:21:07.337Z,971.22
2017-11-25T10:22:07.335Z,971.24
2017-11-25T10:23:07.333Z,971.24
2017-11-25T10:24:07.334Z,971.22
2017-11-25T10:25:07.328Z,971.20
2017-11-25T10:26:07.323Z,971.22
2017-11-25T10:27:07.327Z,971.23
2017-11-25T10:28:07.320Z,971.21
2017-11-25T10:29:07.315Z,971.20
2017-11-25T10:30:07.314Z,971.20
2017-11-25T10:31:07.313Z,971.19
2017-11-25T10:32:07.309Z,971.24
2017-11-25T10:33:07.312Z,971.21
2017-11-25T10:34:07.305Z,971.22
2017-11-25T10:35:07.302Z,971.15
2017-11-25T10:36:07.299Z,971.18
2017-11-25T10:37:07.301Z,971.20
2017-11-25T10:38:07.294Z,971.29
2017-11-25T10:39:07.345Z,971.25
2017-11-25T10:40:07.289Z,971.24
2017-11-25T10:41:07.289Z,971.24
2017-11-25T10:42:07.278Z,971.24
2017-11-25T10:43:07.282Z,971.23
2017-11-25T10:44:07.277Z,971.21
2017-11-25T10:45:07.276Z,971.26
2017-11-25T10:46:07.278Z,971.28
2017-11-25T10:47:07.269Z,971.24
2017-11-25T10:48:07.287Z,971.25
2017-11-25T10:49:07.263Z,971.28
2017-11-25T10:50:07.264Z,971.28
2017-11-25T10:51:07.259Z,971.23
2017-11-25T10:52:07.255Z,971.26
2017-11-25T10:53:07.255Z,971.26
2017-11-25T10:54:07.248Z,971.26
2017-11-25T10:55:07.249Z,971.26
2017-11-25T10:56:07.243Z,971.26
2017-11-25T10:57:07.240Z,971.26
2017-11-25T10:58:07.236Z,971.26
2017-11-25T10:59:07.233Z,971.24
2017-11-25T11:00:07.239Z,971.27
2017-11-25T11:01:09.005Z,971.26
2017-11-25T11:02:07.226Z,971.27
2017-11-25T11:03:07.230Z,971.27
2017-11-25T11:04:07.231Z,971.26
2017-11-25T11:05:07.218Z,971.23
2017-11-25T11:06:07.212Z,971.23
2017-11-25T11:07:07.207Z,971.20
2017-11-25T11:08:07.207Z,971.26
2017-11-25T11:09:07.203Z,971.28
2017-11-25T11:10:08.991Z,971.30
2017-11-25T11:11:07.195Z,971.30
2017-11-25T11:12:07.193Z,971.35
2017-11-25T11:13:07.191Z,971.26
2017-11-25T11:14:07.193Z,971.35
2017-11-25T11:15:14.836Z,971.30
2017-11-25T11:17:02.719Z,971.35
2017-11-25T11:18:01.552Z,971.32
2017-11-25T11:19:56.937Z,971.32
2017-11-25T11:20:56.913Z,971.29
2017-11-25T11:22:50.316Z,971.30
2017-11-25T11:23:50.292Z,971.32
2017-11-25T11:25:45.669Z,971.33
2017-11-25T11:26:45.647Z,971.34
2017-11-25T11:28:40.051Z,971.38
2017-11-25T11:29:40.010Z,971.37
2017-11-25T11:31:34.388Z,971.40
2017-11-25T11:32:34.366Z,971.44
2017-11-25T11:34:27.815Z,971.43
2017-11-25T11:35:27.748Z,971.46
2017-11-25T11:37:22.151Z,971.44
2017-11-25T11:38:22.126Z,971.43
2017-11-25T11:40:15.507Z,971.45
2017-11-25T11:41:15.488Z,971.52
2017-11-25T11:43:09.875Z,971.52
2017-11-25T11:44:09.852Z,971.60
2017-11-25T11:46:03.304Z,971.57
2017-11-25T11:47:03.274Z,971.55
2017-11-25T11:48:56.659Z,971.58
2017-11-25T11:50:04.315Z,971.63
2017-11-25T11:51:51.042Z,971.72
2017-11-25T11:52:51.034Z,971.75
2017-11-25T11:54:44.400Z,971.77
2017-11-25T11:55:44.387Z,971.78
2017-11-25T11:57:45.862Z,971.75
2017-11-25T11:58:37.957Z,971.74
2017-11-25T12:00:31.331Z,971.73
2017-11-25T12:01:31.314Z,971.75
2017-11-25T12:03:25.706Z,971.69
2017-11-25T12:04:25.667Z,971.71
2017-11-25T12:05:25.682Z,971.68
2017-11-25T12:06:33.286Z,971.68
2017-11-25T12:08:20.064Z,971.69
2017-11-25T12:09:20.039Z,971.68
2017-11-25T12:11:14.987Z,971.65
2017-11-25T12:12:13.398Z,971.61
2017-11-25T12:13:13.396Z,971.57
2017-11-25T12:14:13.424Z,971.54
2017-11-25T12:15:13.402Z,971.53
2017-11-25T12:16:13.413Z,971.56
2017-11-25T12:17:13.394Z,971.59
2017-11-25T12:18:13.386Z,971.66
2017-11-25T12:19:13.379Z,971.63
2017-11-25T12:20:13.377Z,971.62
2017-11-25T12:21:13.373Z,971.63
2017-11-25T12:22:13.369Z,971.67
2017-11-25T12:23:13.384Z,971.66
2017-11-25T12:24:13.363Z,971.67
2017-11-25T12:25:13.362Z,971.71
2017-11-25T12:26:13.359Z,971.67
2017-11-25T12:27:13.353Z,971.65
2017-11-25T12:28:13.349Z,971.55
2017-11-25T12:29:13.357Z,971.55
2017-11-25T12:30:13.342Z,971.53
2017-11-25T12:31:13.347Z,971.53
2017-11-25T12:32:13.337Z,971.52
2017-11-25T12:33:13.347Z,971.55
2017-11-25T12:34:13.335Z,971.54
2017-11-25T12:35:13.330Z,971.51
2017-11-25T12:36:13.327Z,971.57
2017-11-25T12:37:13.334Z,971.50
2017-11-25T12:38:13.324Z,971.54
2017-11-25T12:39:13.320Z,971.61
2017-11-25T12:40:13.317Z,971.58
2017-11-25T12:41:13.314Z,971.61
2017-11-25T12:42:13.312Z,971.58
2017-11-25T12:43:13.308Z,971.58
2017-11-25T12:44:13.304Z,971.55
2017-11-25T12:45:13.306Z,971.58